createdAt,value
2019-03-12T00:00:48.910Z,100.00
2019-03-12T00:03:23.390Z,100.00
2019-03-12T00:05:56.786Z,100.00
2019-03-12T00:08:29.805Z,100.00
2019-03-12T00:11:01.498Z,100.00
2019-03-12T00:13:35.029Z,100.00
2019-03-12T00:16:08.955Z,100.00
2019-03-12T00:18:42.366Z,100.00
2019-03-12T00:21:14.864Z,100.00
2019-03-12T00:23:49.408Z,100.00
2019-03-12T00:26:22.412Z,100.00
2019-03-12T00:28:55.588Z,100.00
2019-03-12T00:31:28.407Z,100.00
2019-03-12T00:34:01.646Z,100.00
2019-03-12T00:36:33.441Z,100.00
2019-03-12T00:39:06.972Z,100.00
2019-03-12T00:41:40.591Z,100.00
2019-03-12T00:44:14.303Z,100.00
2019-03-12T00:46:48.076Z,100.00
2019-03-12T00:49:22.263Z,100.00
2019-03-12T00:51:55.286Z,100.00
2019-03-12T00:54:28.478Z,100.00
2019-03-12T00:57:00.362Z,100.00
2019-03-12T00:59:34.418Z,100.00
2019-03-12T01:02:07.949Z,100.00
2019-03-12T01:04:39.801Z,100.00
2019-03-12T01:07:12.799Z,100.00
2019-03-12T01:09:45.861Z,100.00
2019-03-12T01:12:18.596Z,100.00
2019-03-12T01:14:51.249Z,100.00
2019-03-12T01:17:24.051Z,100.00
2019-03-12T01:19:56.778Z,100.00
2019-03-12T01:22:30.560Z,100.00
2019-03-12T01:25:02.959Z,100.00
2019-03-12T01:27:35.993Z,100.00
2019-03-12T01:30:10.828Z,100.00
2019-03-12T01:32:44.403Z,100.00
2019-03-12T01:35:15.539Z,100.00
2019-03-12T01:37:48.200Z,100.00
2019-03-12T01:40:21.118Z,100.00
2019-03-12T01:42:54.336Z,100.00
2019-03-12T01:45:26.061Z,100.00
2019-03-12T01:47:58.784Z,100.00
2019-03-12T01:50:31.436Z,100.00
2019-03-12T01:53:04.731Z,100.00
2019-03-12T01:55:36.340Z,100.00
2019-03-12T01:58:09.315Z,100.00
2019-03-12T02:00:40.611Z,100.00
2019-03-12T02:03:12.739Z,100.00
2019-03-12T02:05:45.958Z,100.00
2019-03-12T02:08:19.857Z,100.00
2019-03-12T02:10:56.439Z,100.00
2019-03-12T02:13:29.677Z,100.00
2019-03-12T02:16:03.399Z,100.00
2019-03-12T02:18:37.789Z,100.00
2019-03-12T02:21:13.090Z,100.00
2019-03-12T02:23:48.541Z,100.00
2019-03-12T02:26:26.192Z,100.00
2019-03-12T02:28:59.812Z,100.00
2019-03-12T02:31:33.406Z,100.00
2019-03-12T02:34:05.125Z,100.00
2019-03-12T02:36:37.947Z,100.00
2019-03-12T02:39:13.071Z,100.00
2019-03-12T02:41:47.373Z,100.00
2019-03-12T02:44:22.389Z,100.00
2019-03-12T02:46:56.485Z,100.00
2019-03-12T02:49:29.403Z,100.00
2019-03-12T02:52:02.479Z,100.00
2019-03-12T02:54:35.518Z,100.00
2019-03-12T02:57:07.088Z,100.00
2019-03-12T02:59:39.410Z,100.00
2019-03-12T03:02:13.230Z,100.00
2019-03-12T03:04:46.865Z,100.00
2019-03-12T03:07:39.050Z,100.00
2019-03-12T03:10:15.207Z,100.00
2019-03-12T03:12:48.136Z,100.00
2019-03-12T03:15:24.225Z,100.00
2019-03-12T03:17:57.834Z,100.00
2019-03-12T03:20:29.211Z,100.00
2019-03-12T03:23:02.983Z,100.00
2019-03-12T03:25:41.009Z,100.00
2019-03-12T03:28:17.280Z,100.00
2019-03-12T03:30:51.216Z,100.00
2019-03-12T03:33:25.980Z,100.00
2019-03-12T03:36:01.031Z,100.00
2019-03-12T03:38:34.551Z,100.00
2019-03-12T03:41:06.987Z,100.00
2019-03-12T03:43:43.706Z,100.00
2019-03-12T03:46:17.346Z,100.00
2019-03-12T03:48:50.604Z,100.00
2019-03-12T03:51:24.710Z,100.00
2019-03-12T03:53:59.795Z,100.00
2019-03-12T03:56:33.275Z,100.00
2019-03-12T03:59:09.146Z,100.00
2019-03-12T04:01:41.995Z,100.00
2019-03-12T04:04:15.767Z,100.00
2019-03-12T04:06:49.572Z,100.00
2019-03-12T04:09:24.704Z,100.00
2019-03-12T04:11:58.370Z,100.00
2019-03-12T04:14:31.664Z,100.00
2019-03-12T04:17:05.091Z,100.00
2019-03-12T04:19:39.272Z,100.00
2019-03-12T04:22:12.629Z,100.00
2019-03-12T04:24:45.602Z,100.00
2019-03-12T04:27:18.598Z,100.00
2019-03-12T04:29:51.583Z,100.00
2019-03-12T04:32:25.158Z,100.00
2019-03-12T04:34:58.398Z,100.00
2019-03-12T04:37:31.061Z,100.00
2019-03-12T04:40:05.668Z,100.00
2019-03-12T04:42:39.179Z,100.00
2019-03-12T04:45:15.680Z,100.00
2019-03-12T04:47:50.816Z,100.00
2019-03-12T04:50:30.882Z,100.00
2019-03-12T04:53:05.360Z,100.00
2019-03-12T04:55:38.328Z,100.00
2019-03-12T04:58:12.285Z,100.00
2019-03-12T05:00:46.903Z,100.00
2019-03-12T05:03:20.446Z,100.00
2019-03-12T05:05:52.887Z,100.00
2019-03-12T05:08:26.874Z,100.00
2019-03-12T05:11:00.462Z,100.00
2019-03-12T05:13:33.139Z,100.00
2019-03-12T05:16:06.751Z,100.00
2019-03-12T05:18:40.246Z,100.00
2019-03-12T05:21:14.873Z,100.00
2019-03-12T05:23:49.088Z,100.00
2019-03-12T05:26:25.106Z,100.00
2019-03-12T05:28:59.401Z,100.00
2019-03-12T05:31:33.009Z,100.00
2019-03-12T05:34:04.577Z,100.00
2019-03-12T05:36:37.136Z,100.00
2019-03-12T05:39:11.020Z,100.00
2019-03-12T05:41:56.832Z,100.00
2019-03-12T05:44:32.467Z,100.00
2019-03-12T05:47:08.136Z,100.00
2019-03-12T05:49:41.446Z,100.00
2019-03-12T05:52:15.279Z,100.00
2019-03-12T05:54:49.223Z,100.00
2019-03-12T05:57:22.497Z,100.00
2019-03-12T05:59:57.110Z,100.00
2019-03-12T06:02:32.454Z,100.00
2019-03-12T06:05:06.250Z,100.00
2019-03-12T06:07:39.499Z,100.00
2019-03-12T06:10:13.045Z,100.00
2019-03-12T06:12:50.308Z,100.00
2019-03-12T06:15:23.471Z,100.00
2019-03-12T06:17:58.877Z,100.00
2019-03-12T06:20:32.319Z,100.00
2019-03-12T06:23:05.611Z,100.00
2019-03-12T06:25:39.693Z,100.00
2019-03-12T06:28:13.386Z,100.00
2019-03-12T06:31:01.301Z,100.00
2019-03-12T06:33:50.081Z,100.00
2019-03-12T06:36:40.656Z,100.00
2019-03-12T06:39:50.292Z,99.95
2019-03-12T06:42:37.626Z,99.85
2019-03-12T06:45:32.082Z,99.52
2019-03-12T06:48:23.887Z,98.99
2019-03-12T06:51:26.163Z,98.62
2019-03-12T06:54:18.122Z,98.58
2019-03-12T06:57:20.930Z,98.49
2019-03-12T07:00:30.921Z,97.95
2019-03-12T07:03:30.247Z,97.62
2019-03-12T07:06:13.952Z,97.81
2019-03-12T07:09:02.511Z,97.65
2019-03-12T07:11:54.902Z,97.93
2019-03-12T07:14:46.811Z,97.64
2019-03-12T07:17:37.683Z,97.35
2019-03-12T07:20:27.382Z,96.65
2019-03-12T07:23:21.904Z,96.27
2019-03-12T07:26:12.463Z,95.92
2019-03-12T07:29:01.031Z,95.72
2019-03-12T07:31:43.807Z,95.06
2019-03-12T07:34:42.194Z,95.05
2019-03-12T07:37:26.622Z,94.01
2019-03-12T07:40:13.589Z,93.52
2019-03-12T07:43:07.849Z,93.38
2019-03-12T07:46:16.625Z,93.35
2019-03-12T07:49:17.883Z,92.83
2019-03-12T07:52:09.084Z,92.92
2019-03-12T07:54:59.827Z,92.47
2019-03-12T07:57:56.431Z,92.48
2019-03-12T08:01:04.216Z,92.18
2019-03-12T08:03:55.059Z,92.34
2019-03-12T08:06:33.967Z,92.20
2019-03-12T08:09:25.090Z,92.00
2019-03-12T08:12:20.414Z,91.32
2019-03-12T08:18:26.320Z,90.23
2019-03-12T08:21:22.210Z,89.48
2019-03-12T08:24:04.574Z,89.00
2019-03-12T08:27:03.115Z,88.92
2019-03-12T08:29:46.332Z,87.87
2019-03-12T08:32:37.298Z,87.57
2019-03-12T08:35:29.620Z,88.07
2019-03-12T08:38:10.164Z,87.12
2019-03-12T08:40:56.660Z,86.09
2019-03-12T08:43:41.327Z,86.11
2019-03-12T08:46:41.274Z,85.44
2019-03-12T08:49:38.416Z,84.56
2019-03-12T08:52:29.220Z,84.74
2019-03-12T08:55:11.611Z,84.71
2019-03-12T08:58:13.061Z,84.13
2019-03-12T09:01:11.339Z,83.90
2019-03-12T09:04:02.755Z,83.33
2019-03-12T09:07:00.731Z,83.60
2019-03-12T09:09:47.066Z,83.46
2019-03-12T09:12:27.039Z,82.56
2019-03-12T09:15:15.631Z,81.94
2019-03-12T09:18:07.852Z,81.92
2019-03-12T09:20:58.686Z,81.44
2019-03-12T09:23:50.414Z,80.89
2019-03-12T09:26:30.356Z,80.12
2019-03-12T09:29:31.770Z,78.92
2019-03-12T09:32:14.967Z,78.80
2019-03-12T09:35:13.161Z,78.58
2019-03-12T09:38:21.039Z,78.75
2019-03-12T09:41:04.503Z,78.05
2019-03-12T09:43:55.587Z,78.45
2019-03-12T09:46:50.070Z,78.77
2019-03-12T09:49:37.204Z,76.91
2019-03-12T09:52:28.875Z,75.01
2019-03-12T09:55:14.590Z,74.48
2019-03-12T09:58:05.205Z,73.79
2019-03-12T10:01:03.459Z,72.53
2019-03-12T10:04:01.947Z,71.59
2019-03-12T10:06:54.573Z,70.51
2019-03-12T10:09:38.574Z,68.55
2019-03-12T10:12:25.238Z,68.31
2019-03-12T10:15:36.343Z,67.16
2019-03-12T10:18:31.189Z,66.59
2019-03-12T10:21:25.794Z,67.74
2019-03-12T10:24:07.170Z,68.66
2019-03-12T10:26:48.538Z,66.25
2019-03-12T10:29:29.480Z,65.16
2019-03-12T10:32:20.483Z,63.69
2019-03-12T10:35:11.669Z,63.75
2019-03-12T10:37:54.971Z,63.24
2019-03-12T10:40:46.674Z,64.59
2019-03-12T10:43:39.781Z,64.77
2019-03-12T10:46:34.228Z,65.24
2019-03-12T10:49:07.842Z,65.15
2019-03-12T10:51:42.185Z,63.90
2019-03-12T10:54:15.462Z,63.43
2019-03-12T10:56:48.262Z,61.70
2019-03-12T10:59:21.533Z,61.72
2019-03-12T11:01:55.086Z,62.71
2019-03-12T11:04:28.091Z,61.27
2019-03-12T11:07:15.529Z,59.68
2019-03-12T11:09:37.247Z,59.66
2019-03-12T11:12:10.714Z,59.14
2019-03-12T11:14:42.102Z,61.14
2019-03-12T11:17:15.115Z,61.60
2019-03-12T11:19:48.565Z,61.46
2019-03-12T11:22:20.680Z,59.78
2019-03-12T11:24:53.830Z,58.27
2019-03-12T11:27:27.559Z,58.37
2019-03-12T11:30:00.850Z,56.88
2019-03-12T11:32:33.729Z,58.93
2019-03-12T11:35:05.524Z,60.38
2019-03-12T11:37:38.169Z,57.48
2019-03-12T11:40:17.881Z,56.49
2019-03-12T11:42:51.632Z,57.32
2019-03-12T11:45:35.468Z,57.42
2019-03-12T11:48:00.971Z,58.30
2019-03-12T11:50:34.804Z,57.34
2019-03-12T11:53:08.745Z,57.38
2019-03-12T11:55:41.840Z,56.07
2019-03-12T11:58:15.552Z,57.04
2019-03-12T12:01:08.872Z,57.00
2019-03-12T12:03:42.439Z,57.43
2019-03-12T12:06:16.931Z,55.92
2019-03-12T12:08:50.891Z,55.69
2019-03-12T12:11:24.636Z,55.38
2019-03-12T12:13:58.967Z,55.44
2019-03-12T12:16:32.334Z,55.16
2019-03-12T12:19:03.622Z,56.17
2019-03-12T12:21:36.715Z,57.87
2019-03-12T12:24:10.074Z,56.63
2019-03-12T12:26:41.456Z,56.32
2019-03-12T12:29:14.184Z,57.38
2019-03-12T12:31:47.527Z,56.12
2019-03-12T12:34:19.232Z,54.90
2019-03-12T12:36:51.647Z,56.23
2019-03-12T12:39:24.409Z,57.26
2019-03-12T12:41:58.234Z,56.54
2019-03-12T12:44:33.864Z,57.49
2019-03-12T12:47:08.117Z,54.85
2019-03-12T12:49:40.921Z,54.71
2019-03-12T12:52:14.712Z,52.95
2019-03-12T12:54:47.787Z,52.99
2019-03-12T12:57:20.544Z,53.12
2019-03-12T12:59:54.533Z,54.33
2019-03-12T13:02:28.025Z,52.12
2019-03-12T13:05:01.244Z,52.16
2019-03-12T13:07:34.607Z,51.54
2019-03-12T13:10:09.651Z,50.68
2019-03-12T13:12:42.466Z,52.22
2019-03-12T13:15:15.674Z,50.42
2019-03-12T13:17:48.752Z,50.94
2019-03-12T13:20:22.942Z,50.75
2019-03-12T13:22:56.347Z,51.62
2019-03-12T13:25:29.868Z,51.27
2019-03-12T13:28:03.218Z,52.15
2019-03-12T13:30:36.421Z,52.27
2019-03-12T13:33:09.153Z,50.82
2019-03-12T13:35:42.473Z,51.34
2019-03-12T13:38:15.917Z,51.80
2019-03-12T13:40:48.673Z,49.68
2019-03-12T13:43:22.423Z,50.34
2019-03-12T13:45:55.860Z,51.73
2019-03-12T13:48:29.200Z,50.76
2019-03-12T13:51:02.667Z,50.85
2019-03-12T13:53:36.203Z,49.87
2019-03-12T13:56:09.490Z,50.03
2019-03-12T13:58:42.352Z,51.48
2019-03-12T14:01:15.082Z,48.51
2019-03-12T14:03:46.574Z,51.22
2019-03-12T14:06:19.250Z,50.01
2019-03-12T14:08:50.930Z,49.11
2019-03-12T14:11:24.134Z,50.61
2019-03-12T14:13:57.223Z,51.22
2019-03-12T14:16:32.599Z,49.50
2019-03-12T14:19:05.605Z,50.36
2019-03-12T14:21:43.716Z,50.33
2019-03-12T14:24:17.161Z,51.63
2019-03-12T14:26:50.558Z,51.20
2019-03-12T14:29:24.355Z,52.47
2019-03-12T14:31:57.392Z,52.00
2019-03-12T14:34:30.390Z,51.24
2019-03-12T14:37:03.752Z,51.81
2019-03-12T14:39:37.698Z,51.67
2019-03-12T14:42:11.021Z,54.14
2019-03-12T14:44:43.074Z,52.96
2019-03-12T14:47:15.862Z,53.09
2019-03-12T14:49:47.864Z,51.78
2019-03-12T14:52:31.800Z,53.27
2019-03-12T14:55:05.301Z,53.53
2019-03-12T14:57:38.621Z,54.57
2019-03-12T15:00:19.169Z,53.69
2019-03-12T15:02:52.928Z,53.24
2019-03-12T15:05:26.528Z,53.32
2019-03-12T15:08:00.640Z,54.15
2019-03-12T15:10:34.229Z,53.28
2019-03-12T15:13:08.213Z,55.12
2019-03-12T15:15:41.984Z,54.84
2019-03-12T15:18:15.348Z,54.45
2019-03-12T15:20:46.335Z,54.39
2019-03-12T15:23:19.638Z,54.24
2019-03-12T15:25:53.027Z,55.52
2019-03-12T15:28:24.934Z,55.86
2019-03-12T15:30:58.531Z,55.99
2019-03-12T15:33:32.909Z,55.94
2019-03-12T15:36:06.780Z,55.67
2019-03-12T15:38:40.225Z,56.23
2019-03-12T15:41:11.936Z,56.42
2019-03-12T15:43:44.351Z,56.47
2019-03-12T15:46:17.437Z,55.46
2019-03-12T15:48:50.591Z,56.31
2019-03-12T15:51:23.900Z,55.71
2019-03-12T15:53:57.878Z,56.10
2019-03-12T15:56:31.243Z,55.73
2019-03-12T15:59:02.230Z,55.90
2019-03-12T16:01:34.528Z,54.64
2019-03-12T16:04:07.967Z,55.95
2019-03-12T16:06:41.781Z,55.74
2019-03-12T16:09:16.218Z,53.90
2019-03-12T16:11:49.133Z,54.07
2019-03-12T16:14:22.632Z,54.42
2019-03-12T16:16:55.733Z,55.16
2019-03-12T16:19:29.365Z,55.60
2019-03-12T16:22:03.207Z,54.21
2019-03-12T16:24:36.916Z,54.83
2019-03-12T16:27:10.626Z,54.41
2019-03-12T16:29:44.417Z,54.10
2019-03-12T16:32:18.111Z,53.64
2019-03-12T16:34:51.198Z,54.23
2019-03-12T16:37:28.291Z,54.55
2019-03-12T16:40:02.367Z,54.34
2019-03-12T16:42:36.504Z,53.95
2019-03-12T16:45:10.660Z,53.98
2019-03-12T16:47:44.679Z,54.76
2019-03-12T16:50:17.775Z,54.31
2019-03-12T16:52:51.250Z,53.79
2019-03-12T16:55:24.641Z,53.92
2019-03-12T16:57:57.886Z,54.11
2019-03-12T17:00:30.642Z,53.46
2019-03-12T17:03:04.037Z,53.61
2019-03-12T17:05:37.808Z,53.55
2019-03-12T17:08:11.915Z,54.24
2019-03-12T17:10:54.385Z,54.33
2019-03-12T17:13:20.580Z,53.87
2019-03-12T17:15:54.814Z,54.68
2019-03-12T17:18:27.964Z,54.62
2019-03-12T17:21:02.175Z,54.96
2019-03-12T17:23:36.221Z,54.47
2019-03-12T17:26:10.148Z,54.87
2019-03-12T17:28:44.156Z,55.30
2019-03-12T17:31:17.974Z,54.63
2019-03-12T17:33:51.874Z,54.60
2019-03-12T17:36:28.371Z,55.61
2019-03-12T17:39:01.832Z,55.61
2019-03-12T17:41:35.456Z,54.91
2019-03-12T17:44:08.483Z,54.92
2019-03-12T17:46:45.095Z,55.46
2019-03-12T17:49:18.646Z,55.81
2019-03-12T17:51:52.403Z,56.21
2019-03-12T17:54:26.338Z,56.93
2019-03-12T17:57:00.159Z,56.69
2019-03-12T17:59:33.296Z,57.00
2019-03-12T18:02:07.606Z,57.13
2019-03-12T18:04:40.660Z,57.56
2019-03-12T18:07:13.943Z,57.38
2019-03-12T18:09:48.399Z,57.32
2019-03-12T18:12:21.858Z,57.62
2019-03-12T18:14:55.269Z,57.97
2019-03-12T18:17:28.616Z,57.86
2019-03-12T18:20:01.260Z,58.02
2019-03-12T18:22:34.612Z,57.40
2019-03-12T18:25:14.451Z,57.54
2019-03-12T18:27:47.891Z,57.70
2019-03-12T18:30:19.888Z,57.71
2019-03-12T18:32:53.617Z,57.59
2019-03-12T18:35:27.174Z,57.13
2019-03-12T18:38:01.295Z,57.99
2019-03-12T18:40:34.698Z,58.42
2019-03-12T18:43:08.031Z,58.19
2019-03-12T18:45:39.486Z,58.04
2019-03-12T18:48:12.221Z,58.36
2019-03-12T18:50:45.630Z,58.08
2019-03-12T18:53:19.845Z,57.75
2019-03-12T18:56:05.617Z,57.66
2019-03-12T18:58:39.155Z,57.64
2019-03-12T19:01:15.132Z,57.81
2019-03-12T19:03:48.510Z,57.47
2019-03-12T19:06:22.053Z,57.75
2019-03-12T19:08:53.518Z,57.09
2019-03-12T19:11:26.901Z,56.48
2019-03-12T19:14:00.497Z,56.69
2019-03-12T19:16:34.391Z,56.20
2019-03-12T19:19:08.479Z,56.54
2019-03-12T19:22:27.267Z,55.91
2019-03-12T19:25:00.660Z,55.93
2019-03-12T19:27:33.020Z,55.74
2019-03-12T19:30:06.453Z,55.92
2019-03-12T19:32:46.004Z,56.29
2019-03-12T19:35:18.796Z,57.03
2019-03-12T19:37:51.887Z,56.97
2019-03-12T19:40:25.671Z,57.29
2019-03-12T19:42:58.789Z,57.47
2019-03-12T19:45:32.671Z,57.48
2019-03-12T19:48:06.193Z,57.77
2019-03-12T19:50:38.166Z,58.64
2019-03-12T19:53:12.027Z,58.84
2019-03-12T19:55:46.854Z,59.25
2019-03-12T19:58:20.665Z,59.42
2019-03-12T20:00:55.101Z,59.43
2019-03-12T20:03:30.120Z,59.47
2019-03-12T20:06:04.939Z,59.42
2019-03-12T20:08:38.741Z,59.45
2019-03-12T20:11:58.066Z,58.97
2019-03-12T20:15:31.724Z,58.68
2019-03-12T20:19:21.335Z,58.09
2019-03-12T20:23:12.551Z,58.39
2019-03-12T20:26:52.578Z,58.41
2019-03-12T20:30:55.429Z,58.00
2019-03-12T20:34:29.453Z,58.06
2019-03-12T20:37:37.972Z,58.32
2019-03-12T20:41:28.506Z,59.12
2019-03-12T20:45:12.172Z,58.64
2019-03-12T20:48:45.159Z,57.41
2019-03-12T20:52:15.661Z,57.26
2019-03-12T20:55:57.409Z,56.52
2019-03-12T20:59:37.612Z,55.59
2019-03-12T21:03:24.962Z,55.81
2019-03-12T21:07:15.142Z,54.88
2019-03-12T21:11:12.543Z,54.80
2019-03-12T21:14:43.385Z,54.56
2019-03-12T21:17:55.992Z,54.76
2019-03-12T21:21:24.246Z,54.83
2019-03-12T21:25:06.287Z,54.62
2019-03-12T21:28:28.294Z,54.81
2019-03-12T21:31:01.955Z,54.64
2019-03-12T21:33:35.954Z,55.66
2019-03-12T21:36:09.705Z,55.58
2019-03-12T21:38:43.759Z,54.73
2019-03-12T21:41:17.186Z,54.56
2019-03-12T21:43:50.632Z,54.56
2019-03-12T21:46:24.495Z,54.55
2019-03-12T21:48:57.454Z,54.84
2019-03-12T21:51:31.215Z,55.07
2019-03-12T21:54:04.945Z,53.99
2019-03-12T21:56:38.597Z,53.78
2019-03-12T21:59:12.137Z,53.61
2019-03-12T22:01:43.563Z,54.23
2019-03-12T22:04:16.259Z,54.55
2019-03-12T22:06:49.705Z,54.61
2019-03-12T22:09:24.218Z,54.42
2019-03-12T22:11:57.559Z,54.41
2019-03-12T22:14:29.669Z,54.63
2019-03-12T22:17:04.927Z,54.97
2019-03-12T22:19:39.334Z,54.46
2019-03-12T22:22:36.146Z,54.37
2019-03-12T22:25:11.947Z,54.33
2019-03-12T22:27:45.266Z,55.32
2019-03-12T22:30:21.002Z,54.95
2019-03-12T22:32:53.990Z,55.09
2019-03-12T22:35:27.345Z,55.63
2019-03-12T22:37:59.440Z,55.06
2019-03-12T22:40:31.785Z,55.24
2019-03-12T22:43:04.777Z,55.25
2019-03-12T22:45:38.015Z,55.55
2019-03-12T22:48:10.244Z,55.32
2019-03-12T22:50:43.757Z,55.62
2019-03-12T22:53:16.817Z,55.30
2019-03-12T22:55:50.363Z,55.94
2019-03-12T22:58:23.765Z,55.70
2019-03-12T23:00:58.296Z,55.44
2019-03-12T23:03:31.312Z,54.85
2019-03-12T23:06:06.085Z,54.92
2019-03-12T23:08:39.512Z,54.94
2019-03-12T23:11:12.444Z,55.50
2019-03-12T23:13:45.802Z,55.50
2019-03-12T23:16:20.183Z,55.85
2019-03-12T23:18:52.900Z,55.53
2019-03-12T23:21:25.580Z,55.87
2019-03-12T23:23:58.578Z,55.35
2019-03-12T23:26:32.265Z,55.92
2019-03-12T23:29:05.836Z,56.38
2019-03-12T23:31:38.263Z,56.35
2019-03-12T23:34:11.449Z,56.20
2019-03-12T23:36:45.201Z,56.33
2019-03-12T23:39:19.050Z,56.75
2019-03-12T23:41:51.997Z,57.57
2019-03-12T23:44:24.398Z,57.95
2019-03-12T23:46:57.899Z,58.43
2019-03-12T23:49:31.472Z,58.75
2019-03-12T23:52:05.227Z,58.83
2019-03-12T23:54:38.586Z,59.04
2019-03-12T23:57:12.199Z,59.30
2019-03-12T23:59:44.939Z,60.17
